Aérodrome :
LOGIN :

S'inscrire | Disclaimer

   EN    FR    IT 

 










Légende :    VFR   VFR Marginal   IFR   IFR Intensif   IFR Très Intensif
Visi : 
Plafond : 
>= 8 km
>= 3000ft
5 à 8 km
1000 à 3000 ft
1500m à 5 km
500 à 1000 ft
800 à 1500m
200 à 500 ft
< 800m
< 200 ft
Symboles :   Orages  Brouillard  Fortes neiges  Fortes précipitations  Vent > 20 kt
SIGMETs :   Divers  Orages  Givrage  Turbulence  Onde Orograph.  Cendres Volcan.






- Altitude de l'aérodrome : 1247 ft
- Code IATA : PRG


LKPR - Praha Ruzyne

DERNIER METAR :
  • 281100Z 32006KT 4400 -RA BR BKN004 BKN046 08/08 Q1011 TEMPO BKN012

METARs EXPIRÉS :
  • 281030Z 33005KT 5000 -RA BR BKN004 BKN045 08/07 Q1011 TEMPO BKN005
  • 281000Z 32005KT 5000 -RA BR BKN003 BKN048 07/07 Q1011 TEMPO BKN005
  • 280930Z 34004KT 280V010 4000 -RA BR FEW001 BKN003 07/07 Q1011 TEMPO BKN005
  • 280917Z 34004KT 4000 -RA BR FEW001 BKN003 07/07 Q1011 RMK REG QNH 1007
  • 280900Z 35003KT 320V050 4000 -RA BR BKN002 BKN005 07/07 Q1011 TEMPO 5000 -RA BR BKN004
  • 280855Z 35003KT 310V030 4000 -RA BR BKN003 BKN005 07/07 Q1011 RMK REG QNH 1007
  • 280830Z 03003KT 360V060 3500 -RA BR BKN002 BKN004 06/06 Q1011 TEMPO 5000 -RA BR BKN004
  • 280822Z 01003KT 3200 -RA BR BKN002 BKN004 07/06 Q1011 RMK REG QNH 1007

TAF AMD TAF LKPR
Valide du 28 à 10h jusqu'au 29 à 12h UTC


281039Z 2810/2912 VRB02KT 5000 BR OVC010
TEMPO 2810/2812 3000 BR BKN004
BECMG 2812/2814 30008KT BKN017
TEMPO 2814/2822 2500 RA BR BKN009



MET'MAP, la Météo Aéronautique d'un coup d'oeil ! - Copyright ORBIFLY Décembre 2007 - Disclaimer

ORBIFLY MET'MAP TEAM :

Programmation & Développement : Alexandra Zaïnal
Sur une idée originale de : Baudouin d'Aumeries
Assistance à la programmation : Marc-Olivier Méhu
Soutien technique & logistique : Manuel Goepfert

Contact : metmap@orbifly.com




SOURCES & CREDITS :

   NOAA